sensor_id;sensor_type;location;lat;lon;timestamp;pressure;altitude;pressure_sealevel;temperature;humidity
51359;BME280;37448;51.588;7.248;2024-03-22T00:00:53;101510.06;;;9.82;99.82
51359;BME280;37448;51.588;7.248;2024-03-22T00:02:53;101505.75;;;9.85;100.00
51359;BME280;37448;51.588;7.248;2024-03-22T00:04:53;101504.88;;;9.83;100.00
51359;BME280;37448;51.588;7.248;2024-03-22T00:06:54;101506.59;;;9.86;100.00
51359;BME280;37448;51.588;7.248;2024-03-22T00:08:54;101497.91;;;9.79;100.00
51359;BME280;37448;51.588;7.248;2024-03-22T00:10:55;101503.13;;;9.81;100.00
51359;BME280;37448;51.588;7.248;2024-03-22T00:12:55;101501.41;;;9.83;100.00
51359;BME280;37448;51.588;7.248;2024-03-22T00:14:55;101493.59;;;9.81;100.00
51359;BME280;37448;51.588;7.248;2024-03-22T00:16:56;101497.94;;;9.82;100.00
51359;BME280;37448;51.588;7.248;2024-03-22T00:18:56;101486.63;;;9.77;100.00
51359;BME280;37448;51.588;7.248;2024-03-22T00:20:57;101490.09;;;9.76;100.00
51359;BME280;37448;51.588;7.248;2024-03-22T00:22:57;101487.50;;;9.79;100.00
51359;BME280;37448;51.588;7.248;2024-03-22T00:24:57;101484.88;;;9.76;100.00
51359;BME280;37448;51.588;7.248;2024-03-22T00:26:58;101483.16;;;9.80;100.00
51359;BME280;37448;51.588;7.248;2024-03-22T00:28:58;101476.22;;;9.74;100.00
51359;BME280;37448;51.588;7.248;2024-03-22T00:30:58;101481.44;;;9.74;99.74
51359;BME280;37448;51.588;7.248;2024-03-22T00:32:59;101470.16;;;9.80;100.00
51359;BME280;37448;51.588;7.248;2024-03-22T00:34:59;101469.25;;;9.79;100.00
51359;BME280;37448;51.588;7.248;2024-03-22T00:37:00;101464.94;;;9.78;100.00
51359;BME280;37448;51.588;7.248;2024-03-22T00:39:00;101466.69;;;9.78;100.00
51359;BME280;37448;51.588;7.248;2024-03-22T00:41:00;101464.06;;;9.88;100.00
51359;BME280;37448;51.588;7.248;2024-03-22T00:43:01;101457.13;;;9.87;100.00
51359;BME280;37448;51.588;7.248;2024-03-22T00:45:02;101451.03;;;9.92;100.00
51359;BME280;37448;51.588;7.248;2024-03-22T00:47:02;101449.28;;;9.90;100.00
51359;BME280;37448;51.588;7.248;2024-03-22T00:49:03;101443.22;;;9.88;100.00
51359;BME280;37448;51.588;7.248;2024-03-22T00:51:04;101442.34;;;9.86;100.00
51359;BME280;37448;51.588;7.248;2024-03-22T00:53:04;101437.13;;;9.93;100.00
51359;BME280;37448;51.588;7.248;2024-03-22T00:55:06;101428.44;;;9.97;100.00
51359;BME280;37448;51.588;7.248;2024-03-22T00:57:06;101428.41;;;10.00;100.00
51359;BME280;37448;51.588;7.248;2024-03-22T00:59:07;101418.88;;;9.96;100.00
51359;BME280;37448;51.588;7.248;2024-03-22T01:01:07;101413.66;;;9.99;99.69
51359;BME280;37448;51.588;7.248;2024-03-22T01:03:07;101407.56;;;10.03;98.59
51359;BME280;37448;51.588;7.248;2024-03-22T01:05:10;101408.44;;;10.08;100.00
51359;BME280;37448;51.588;7.248;2024-03-22T01:07:11;101411.94;;;10.07;99.94
51359;BME280;37448;51.588;7.248;2024-03-22T01:09:11;101411.03;;;10.10;100.00
51359;BME280;37448;51.588;7.248;2024-03-22T01:11:11;101415.41;;;10.09;99.54
51359;BME280;37448;51.588;7.248;2024-03-22T01:13:12;101405.81;;;10.14;100.00
51359;BME280;37448;51.588;7.248;2024-03-22T01:15:12;101409.28;;;10.18;100.00
51359;BME280;37448;51.588;7.248;2024-03-22T01:17:12;101406.69;;;10.16;100.00
51359;BME280;37448;51.588;7.248;2024-03-22T01:19:13;101403.19;;;10.16;99.81
51359;BME280;37448;51.588;7.248;2024-03-22T01:21:13;101399.72;;;10.15;99.43
51359;BME280;37448;51.588;7.248;2024-03-22T01:23:14;101397.97;;;10.17;98.61
51359;BME280;37448;51.588;7.248;2024-03-22T01:25:14;101397.13;;;10.20;98.56
51359;BME280;37448;51.588;7.248;2024-03-22T01:27:14;101394.50;;;10.22;99.31
51359;BME280;37448;51.588;7.248;2024-03-22T01:29:15;101388.41;;;10.24;99.73
51359;BME280;37448;51.588;7.248;2024-03-22T01:31:15;101387.50;;;10.27;99.67
51359;BME280;37448;51.588;7.248;2024-03-22T01:33:16;101391.00;;;10.29;99.35
51359;BME280;37448;51.588;7.248;2024-03-22T01:35:16;101384.03;;;10.31;100.00
51359;BME280;37448;51.588;7.248;2024-03-22T01:37:17;101382.31;;;10.30;99.97
51359;BME280;37448;51.588;7.248;2024-03-22T01:39:21;101368.41;;;10.25;99.80
51359;BME280;37448;51.588;7.248;2024-03-22T01:41:21;101356.22;;;10.27;98.55
51359;BME280;37448;51.588;7.248;2024-03-22T01:43:21;101352.75;;;10.29;100.00
51359;BME280;37448;51.588;7.248;2024-03-22T01:45:22;101352.78;;;10.31;100.00
51359;BME280;37448;51.588;7.248;2024-03-22T01:47:24;101346.66;;;10.30;99.75
51359;BME280;37448;51.588;7.248;2024-03-22T01:49:25;101342.31;;;10.37;100.00
51359;BME280;37448;51.588;7.248;2024-03-22T01:51:25;101340.59;;;10.33;100.00
51359;BME280;37448;51.588;7.248;2024-03-22T01:53:26;101335.38;;;10.33;100.00
51359;BME280;37448;51.588;7.248;2024-03-22T01:55:27;101334.50;;;10.34;100.00
51359;BME280;37448;51.588;7.248;2024-03-22T01:57:29;101337.06;;;10.40;100.00
51359;BME280;37448;51.588;7.248;2024-03-22T01:59:30;101331.84;;;10.43;100.00
51359;BME280;37448;51.588;7.248;2024-03-22T02:01:31;101332.72;;;10.42;100.00
51359;BME280;37448;51.588;7.248;2024-03-22T02:03:31;101323.16;;;10.43;100.00
51359;BME280;37448;51.588;7.248;2024-03-22T02:05:32;101323.13;;;10.47;100.00
51359;BME280;37448;51.588;7.248;2024-03-22T02:07:32;101322.25;;;10.48;100.00
51359;BME280;37448;51.588;7.248;2024-03-22T02:09:32;101319.69;;;10.44;98.84
51359;BME280;37448;51.588;7.248;2024-03-22T02:11:33;101318.78;;;10.43;98.18
51359;BME280;37448;51.588;7.248;2024-03-22T02:13:34;101319.66;;;10.45;99.88
51359;BME280;37448;51.588;7.248;2024-03-22T02:15:35;101307.47;;;10.47;99.98
51359;BME280;37448;51.588;7.248;2024-03-22T02:17:35;101305.75;;;10.46;100.00
51359;BME280;37448;51.588;7.248;2024-03-22T02:19:36;101303.97;;;10.52;100.00
51359;BME280;37448;51.588;7.248;2024-03-22T02:21:36;101304.88;;;10.49;99.28
51359;BME280;37448;51.588;7.248;2024-03-22T02:23:38;101302.22;;;10.51;100.00
51359;BME280;37448;51.588;7.248;2024-03-22T02:25:39;101299.63;;;10.51;99.58
51359;BME280;37448;51.588;7.248;2024-03-22T02:27:39;101299.59;;;10.55;100.00
51359;BME280;37448;51.588;7.248;2024-03-22T02:29:39;101291.81;;;10.54;100.00
51359;BME280;37448;51.588;7.248;2024-03-22T02:31:40;101293.53;;;10.55;98.70
51359;BME280;37448;51.588;7.248;2024-03-22T02:33:40;101297.00;;;10.57;100.00
51359;BME280;37448;51.588;7.248;2024-03-22T02:35:41;101291.78;;;10.57;100.00
51359;BME280;37448;51.588;7.248;2024-03-22T02:37:41;101291.75;;;10.58;99.36
51359;BME280;37448;51.588;7.248;2024-03-22T02:39:41;101290.84;;;10.62;100.00
51359;BME280;37448;51.588;7.248;2024-03-22T02:41:43;101283.03;;;10.62;100.00
51359;BME280;37448;51.588;7.248;2024-03-22T02:43:43;101296.97;;;10.60;98.60
51359;BME280;37448;51.588;7.248;2024-03-22T02:45:43;101284.75;;;10.63;100.00
51359;BME280;37448;51.588;7.248;2024-03-22T02:47:44;101281.31;;;10.63;100.00
51359;BME280;37448;51.588;7.248;2024-03-22T02:49:44;101289.13;;;10.65;100.00
51359;BME280;37448;51.588;7.248;2024-03-22T02:51:45;101284.75;;;10.65;99.92
51359;BME280;37448;51.588;7.248;2024-03-22T02:53:45;101285.66;;;10.66;98.68
51359;BME280;37448;51.588;7.248;2024-03-22T02:55:46;101286.47;;;10.69;100.00
51359;BME280;37448;51.588;7.248;2024-03-22T02:57:46;101279.53;;;10.68;99.44
51359;BME280;37448;51.588;7.248;2024-03-22T02:59:46;101269.97;;;10.69;100.00
51359;BME280;37448;51.588;7.248;2024-03-22T03:01:47;101260.41;;;10.66;98.40
51359;BME280;37448;51.588;7.248;2024-03-22T03:03:47;101255.16;;;10.69;99.73
51359;BME280;37448;51.588;7.248;2024-03-22T03:05:48;101258.66;;;10.68;100.00
51359;BME280;37448;51.588;7.248;2024-03-22T03:07:48;101250.84;;;10.68;100.00
51359;BME280;37448;51.588;7.248;2024-03-22T03:09:48;101251.72;;;10.67;100.00
51359;BME280;37448;51.588;7.248;2024-03-22T03:11:49;101250.84;;;10.65;100.00
51359;BME280;37448;51.588;7.248;2024-03-22T03:13:49;101248.28;;;10.62;100.00
51359;BME280;37448;51.588;7.248;2024-03-22T03:15:49;101250.84;;;10.65;100.00
51359;BME280;37448;51.588;7.248;2024-03-22T03:17:50;101254.38;;;10.61;100.00
51359;BME280;37448;51.588;7.248;2024-03-22T03:19:52;101251.75;;;10.59;100.00
51359;BME280;37448;51.588;7.248;2024-03-22T03:21:52;101250.03;;;10.60;100.00
51359;BME280;37448;51.588;7.248;2024-03-22T03:23:52;101254.38;;;10.61;100.00
51359;BME280;37448;51.588;7.248;2024-03-22T03:25:53;101243.91;;;10.62;100.00
51359;BME280;37448;51.588;7.248;2024-03-22T03:27:53;101240.47;;;10.62;100.00
51359;BME280;37448;51.588;7.248;2024-03-22T03:29:54;101243.09;;;10.59;100.00
51359;BME280;37448;51.588;7.248;2024-03-22T03:31:54;101234.38;;;10.60;100.00
51359;BME280;37448;51.588;7.248;2024-03-22T03:33:54;101231.78;;;10.60;100.00
51359;BME280;37448;51.588;7.248;2024-03-22T03:35:55;101236.16;;;10.58;100.00
51359;BME280;37448;51.588;7.248;2024-03-22T03:37:55;101225.72;;;10.58;100.00
51359;BME280;37448;51.588;7.248;2024-03-22T03:39:56;101217.94;;;10.55;99.64
51359;BME280;37448;51.588;7.248;2024-03-22T03:41:56;101223.09;;;10.58;100.00
51359;BME280;37448;51.588;7.248;2024-03-22T03:43:56;101213.53;;;10.58;100.00
51359;BME280;37448;51.588;7.248;2024-03-22T03:45:57;101206.59;;;10.59;100.00
51359;BME280;37448;51.588;7.248;2024-03-22T03:47:57;101216.13;;;10.58;100.00
51359;BME280;37448;51.588;7.248;2024-03-22T03:49:58;101199.66;;;10.55;100.00
51359;BME280;37448;51.588;7.248;2024-03-22T03:51:58;101197.91;;;10.55;100.00
51359;BME280;37448;51.588;7.248;2024-03-22T03:53:59;101193.59;;;10.50;100.00
51359;BME280;37448;51.588;7.248;2024-03-22T03:55:59;101196.22;;;10.50;100.00
51359;BME280;37448;51.588;7.248;2024-03-22T03:58:00;101191.03;;;10.48;100.00
51359;BME280;37448;51.588;7.248;2024-03-22T04:00:00;101186.69;;;10.47;100.00
51359;BME280;37448;51.588;7.248;2024-03-22T04:02:00;101183.22;;;10.46;100.00
51359;BME280;37448;51.588;7.248;2024-03-22T04:04:02;101178.91;;;10.42;100.00
51359;BME280;37448;51.588;7.248;2024-03-22T04:06:03;101172.84;;;10.40;100.00
51359;BME280;37448;51.588;7.248;2024-03-22T04:08:03;101167.66;;;10.37;100.00
51359;BME280;37448;51.588;7.248;2024-03-22T04:10:04;101165.03;;;10.37;100.00
51359;BME280;37448;51.588;7.248;2024-03-22T04:12:05;101161.59;;;10.35;100.00
51359;BME280;37448;51.588;7.248;2024-03-22T04:14:06;101148.56;;;10.35;100.00
51359;BME280;37448;51.588;7.248;2024-03-22T04:16:06;101158.13;;;10.33;100.00
51359;BME280;37448;51.588;7.248;2024-03-22T04:18:07;101148.56;;;10.35;100.00
51359;BME280;37448;51.588;7.248;2024-03-22T04:20:07;101146.81;;;10.34;100.00
51359;BME280;37448;51.588;7.248;2024-03-22T04:22:08;101148.53;;;10.37;100.00
51359;BME280;37448;51.588;7.248;2024-03-22T04:24:09;101136.38;;;10.36;100.00
51359;BME280;37448;51.588;7.248;2024-03-22T04:26:10;101139.00;;;10.34;100.00
51359;BME280;37448;51.588;7.248;2024-03-22T04:28:10;101143.31;;;10.38;100.00
51359;BME280;37448;51.588;7.248;2024-03-22T04:33:34;101132.88;;;10.37;100.00
51359;BME280;37448;51.588;7.248;2024-03-22T04:35:34;101131.97;;;10.42;100.00
51359;BME280;37448;51.588;7.248;2024-03-22T04:37:35;101127.63;;;10.40;100.00
51359;BME280;37448;51.588;7.248;2024-03-22T04:39:35;101123.28;;;10.43;100.00
51359;BME280;37448;51.588;7.248;2024-03-22T04:41:36;101117.19;;;10.44;100.00
51359;BME280;37448;51.588;7.248;2024-03-22T04:43:37;101114.56;;;10.44;100.00
51359;BME280;37448;51.588;7.248;2024-03-22T04:45:37;101118.03;;;10.46;100.00
51359;BME280;37448;51.588;7.248;2024-03-22T04:47:38;101114.53;;;10.47;100.00
51359;BME280;37448;51.588;7.248;2024-03-22T04:49:40;101110.22;;;10.46;100.00
51359;BME280;37448;51.588;7.248;2024-03-22T04:51:41;101118.00;;;10.50;100.00
51359;BME280;37448;51.588;7.248;2024-03-22T04:53:41;101118.91;;;10.47;100.00
51359;BME280;37448;51.588;7.248;2024-03-22T04:55:46;101111.94;;;10.49;100.00
51359;BME280;37448;51.588;7.248;2024-03-22T04:57:47;101109.31;;;10.47;99.61
51359;BME280;37448;51.588;7.248;2024-03-22T04:59:47;101110.19;;;10.50;99.05
51359;BME280;37448;51.588;7.248;2024-03-22T05:01:47;101108.41;;;10.55;98.17
51359;BME280;37448;51.588;7.248;2024-03-22T05:03:48;101102.31;;;10.54;97.68
51359;BME280;37448;51.588;7.248;2024-03-22T05:05:49;101100.59;;;10.55;98.13
51359;BME280;37448;51.588;7.248;2024-03-22T05:07:50;101104.03;;;10.57;99.58
51359;BME280;37448;51.588;7.248;2024-03-22T05:09:50;101101.44;;;10.55;97.76
51359;BME280;37448;51.588;7.248;2024-03-22T05:11:50;101110.16;;;10.54;97.52
51359;BME280;37448;51.588;7.248;2024-03-22T05:13:51;101107.53;;;10.56;98.99
51359;BME280;37448;51.588;7.248;2024-03-22T05:15:51;101111.88;;;10.57;98.90
51359;BME280;37448;51.588;7.248;2024-03-22T05:17:52;101104.00;;;10.60;98.18
51359;BME280;37448;51.588;7.248;2024-03-22T05:19:52;101105.75;;;10.61;97.12
51359;BME280;37448;51.588;7.248;2024-03-22T05:21:52;101113.56;;;10.61;98.53
51359;BME280;37448;51.588;7.248;2024-03-22T05:23:53;101106.63;;;10.60;97.63
51359;BME280;37448;51.588;7.248;2024-03-22T05:25:53;101110.06;;;10.60;97.60
51359;BME280;37448;51.588;7.248;2024-03-22T05:27:53;101107.50;;;10.59;98.16
51359;BME280;37448;51.588;7.248;2024-03-22T05:29:54;101104.00;;;10.60;98.16
51359;BME280;37448;51.588;7.248;2024-03-22T05:31:54;101111.84;;;10.60;97.73
51359;BME280;37448;51.588;7.248;2024-03-22T05:33:55;101098.75;;;10.63;96.74
51359;BME280;37448;51.588;7.248;2024-03-22T05:35:55;101108.31;;;10.64;96.77
51359;BME280;37448;51.588;7.248;2024-03-22T05:37:56;101103.97;;;10.63;95.48
51359;BME280;37448;51.588;7.248;2024-03-22T05:39:56;101103.97;;;10.63;96.04
51359;BME280;37448;51.588;7.248;2024-03-22T05:41:57;101102.22;;;10.65;97.19
51359;BME280;37448;51.588;7.248;2024-03-22T05:43:57;101089.19;;;10.65;96.55
51359;BME280;37448;51.588;7.248;2024-03-22T05:45:57;101094.34;;;10.68;96.13
51359;BME280;37448;51.588;7.248;2024-03-22T05:47:58;101093.47;;;10.69;97.24
51359;BME280;37448;51.588;7.248;2024-03-22T05:49:59;101100.41;;;10.70;98.12
51359;BME280;37448;51.588;7.248;2024-03-22T05:51:59;101097.84;;;10.67;96.96
51359;BME280;37448;51.588;7.248;2024-03-22T05:54:00;101093.50;;;10.66;94.93
51359;BME280;37448;51.588;7.248;2024-03-22T05:56:00;101094.34;;;10.68;95.66
51359;BME280;37448;51.588;7.248;2024-03-22T05:58:00;101084.81;;;10.67;95.98
51359;BME280;37448;51.588;7.248;2024-03-22T06:00:01;101077.81;;;10.69;96.13
51359;BME280;37448;51.588;7.248;2024-03-22T06:02:02;101086.50;;;10.71;96.30
51359;BME280;37448;51.588;7.248;2024-03-22T06:04:02;101089.94;;;10.73;96.34
51359;BME280;37448;51.588;7.248;2024-03-22T06:06:03;101093.47;;;10.71;95.38
51359;BME280;37448;51.588;7.248;2024-03-22T06:08:03;101087.31;;;10.76;96.80
51359;BME280;37448;51.588;7.248;2024-03-22T06:10:04;101089.06;;;10.77;96.31
51359;BME280;37448;51.588;7.248;2024-03-22T06:12:05;101088.19;;;10.79;96.26
51359;BME280;37448;51.588;7.248;2024-03-22T06:14:06;101092.50;;;10.80;96.86
51359;BME280;37448;51.588;7.248;2024-03-22T06:16:06;101086.38;;;10.84;97.46
51359;BME280;37448;51.588;7.248;2024-03-22T06:18:06;101081.97;;;10.87;97.25
51359;BME280;37448;51.588;7.248;2024-03-22T06:20:07;101083.69;;;10.91;97.29
51359;BME280;37448;51.588;7.248;2024-03-22T06:22:09;101081.03;;;10.93;95.56
51359;BME280;37448;51.588;7.248;2024-03-22T06:24:10;101081.91;;;10.94;96.10
51359;BME280;37448;51.588;7.248;2024-03-22T06:26:10;101070.59;;;10.93;95.96
51359;BME280;37448;51.588;7.248;2024-03-22T06:28:10;101068.88;;;10.94;94.07
51359;BME280;37448;51.588;7.248;2024-03-22T06:30:11;101063.56;;;10.98;94.13
51359;BME280;37448;51.588;7.248;2024-03-22T06:32:12;101059.19;;;11.00;93.96
51359;BME280;37448;51.588;7.248;2024-03-22T06:34:12;101062.69;;;11.01;94.37
51359;BME280;37448;51.588;7.248;2024-03-22T06:36:12;101067.88;;;11.04;96.58
51359;BME280;37448;51.588;7.248;2024-03-22T06:38:13;101068.75;;;11.04;92.70
51359;BME280;37448;51.588;7.248;2024-03-22T06:40:14;101054.81;;;11.04;93.95
51359;BME280;37448;51.588;7.248;2024-03-22T06:42:15;101054.78;;;11.09;93.91
51359;BME280;37448;51.588;7.248;2024-03-22T06:44:15;101059.94;;;11.12;94.23
51359;BME280;37448;51.588;7.248;2024-03-22T06:46:15;101061.66;;;11.13;93.08
51359;BME280;37448;51.588;7.248;2024-03-22T06:48:16;101066.00;;;11.14;92.59
51359;BME280;37448;51.588;7.248;2024-03-22T06:50:17;101066.91;;;11.13;95.09
51359;BME280;37448;51.588;7.248;2024-03-22T06:52:24;101066.84;;;11.16;93.27
51359;BME280;37448;51.588;7.248;2024-03-22T06:54:25;101064.19;;;11.19;92.34
51359;BME280;37448;51.588;7.248;2024-03-22T06:56:26;101067.63;;;11.23;93.14
51359;BME280;37448;51.588;7.248;2024-03-22T06:58:26;101074.56;;;11.25;93.30
51359;BME280;37448;51.588;7.248;2024-03-22T07:00:27;101061.47;;;11.28;91.16
51359;BME280;37448;51.588;7.248;2024-03-22T07:02:27;101060.56;;;11.31;92.26
51359;BME280;37448;51.588;7.248;2024-03-22T07:04:27;101068.34;;;11.36;93.11
51359;BME280;37448;51.588;7.248;2024-03-22T07:06:28;101060.50;;;11.37;92.46
51359;BME280;37448;51.588;7.248;2024-03-22T07:08:28;101056.97;;;11.41;91.66
51359;BME280;37448;51.588;7.248;2024-03-22T07:10:28;101060.34;;;11.48;93.00
51359;BME280;37448;51.588;7.248;2024-03-22T07:12:29;101066.44;;;11.50;92.12
51359;BME280;37448;51.588;7.248;2024-03-22T07:14:29;101070.69;;;11.56;91.82
51359;BME280;37448;51.588;7.248;2024-03-22T07:16:30;101072.31;;;11.65;91.95
51359;BME280;37448;51.588;7.248;2024-03-22T07:18:30;101073.09;;;11.70;92.50
51359;BME280;37448;51.588;7.248;2024-03-22T07:20:30;101074.81;;;11.74;91.72
51359;BME280;37448;51.588;7.248;2024-03-22T07:22:31;101076.47;;;11.78;89.95
51359;BME280;37448;51.588;7.248;2024-03-22T07:24:31;101079.03;;;11.80;89.01
51359;BME280;37448;51.588;7.248;2024-03-22T07:26:32;101065.91;;;11.84;88.87
51359;BME280;37448;51.588;7.248;2024-03-22T07:28:32;101073.63;;;11.92;90.14
51359;BME280;37448;51.588;7.248;2024-03-22T07:30:33;101078.75;;;12.00;89.56
51359;BME280;37448;51.588;7.248;2024-03-22T07:32:33;101062.06;;;12.07;88.72
51359;BME280;37448;51.588;7.248;2024-03-22T07:34:34;101052.34;;;12.15;87.69
51359;BME280;37448;51.588;7.248;2024-03-22T07:36:38;101057.53;;;12.17;87.60
51359;BME280;37448;51.588;7.248;2024-03-22T07:38:38;101048.00;;;12.14;86.38
51359;BME280;37448;51.588;7.248;2024-03-22T07:40:39;101059.22;;;12.19;87.02
51359;BME280;37448;51.588;7.248;2024-03-22T07:42:39;101051.38;;;12.19;88.95
51359;BME280;37448;51.588;7.248;2024-03-22T07:44:39;101043.59;;;12.18;87.92
51359;BME280;37448;51.588;7.248;2024-03-22T07:46:40;101044.34;;;12.25;86.70
51359;BME280;37448;51.588;7.248;2024-03-22T07:48:40;101042.50;;;12.30;89.41
51359;BME280;37448;51.588;7.248;2024-03-22T07:50:41;101042.50;;;12.30;87.82
51359;BME280;37448;51.588;7.248;2024-03-22T07:52:41;101051.19;;;12.32;88.93
51359;BME280;37448;51.588;7.248;2024-03-22T07:54:41;101042.50;;;12.30;87.00
51359;BME280;37448;51.588;7.248;2024-03-22T07:56:42;101048.63;;;12.29;86.54
51359;BME280;37448;51.588;7.248;2024-03-22T07:58:42;101046.84;;;12.29;85.60
51359;BME280;37448;51.588;7.248;2024-03-22T08:00:43;101053.81;;;12.30;85.89
51359;BME280;37448;51.588;7.248;2024-03-22T08:02:43;101049.41;;;12.34;86.79
51359;BME280;37448;51.588;7.248;2024-03-22T08:04:44;101049.41;;;12.32;84.96
51359;BME280;37448;51.588;7.248;2024-03-22T08:06:44;101051.06;;;12.38;85.82
51359;BME280;37448;51.588;7.248;2024-03-22T08:08:44;101053.72;;;12.37;82.78
51359;BME280;37448;51.588;7.248;2024-03-22T08:10:45;101054.44;;;12.43;84.18
51359;BME280;37448;51.588;7.248;2024-03-22T08:12:45;101050.13;;;12.42;83.41
51359;BME280;37448;51.588;7.248;2024-03-22T08:14:45;101053.66;;;12.40;80.91
51359;BME280;37448;51.588;7.248;2024-03-22T08:16:46;101057.03;;;12.46;82.82
51359;BME280;37448;51.588;7.248;2024-03-22T08:18:46;101048.25;;;12.51;82.24
51359;BME280;37448;51.588;7.248;2024-03-22T08:20:46;101047.41;;;12.48;82.60
51359;BME280;37448;51.588;7.248;2024-03-22T08:22:47;101050.09;;;12.45;78.56
51359;BME280;37448;51.588;7.248;2024-03-22T08:24:48;101054.34;;;12.49;80.08
51359;BME280;37448;51.588;7.248;2024-03-22T08:26:48;101051.69;;;12.51;78.90
51359;BME280;37448;51.588;7.248;2024-03-22T08:28:49;101045.56;;;12.54;79.42
51359;BME280;37448;51.588;7.248;2024-03-22T08:30:49;101053.34;;;12.55;78.46
51359;BME280;37448;51.588;7.248;2024-03-22T08:32:50;101044.69;;;12.53;78.76
51359;BME280;37448;51.588;7.248;2024-03-22T08:34:50;101055.91;;;12.60;79.08
51359;BME280;37448;51.588;7.248;2024-03-22T08:36:50;101038.53;;;12.56;79.49
51359;BME280;37448;51.588;7.248;2024-03-22T08:38:51;101036.88;;;12.52;78.68
51359;BME280;37448;51.588;7.248;2024-03-22T08:40:51;101034.16;;;12.56;77.48
51359;BME280;37448;51.588;7.248;2024-03-22T08:42:51;101021.13;;;12.55;79.96
51359;BME280;37448;51.588;7.248;2024-03-22T08:44:52;101022.78;;;12.59;76.85
51359;BME280;37448;51.588;7.248;2024-03-22T08:46:53;101017.34;;;12.68;78.56
51359;BME280;37448;51.588;7.248;2024-03-22T08:48:53;101025.88;;;12.80;79.65
51359;BME280;37448;51.588;7.248;2024-03-22T08:50:54;101019.66;;;12.85;79.32
51359;BME280;37448;51.588;7.248;2024-03-22T08:52:54;101019.59;;;12.87;77.56
51359;BME280;37448;51.588;7.248;2024-03-22T08:54:55;101029.19;;;12.88;75.10
51359;BME280;37448;51.588;7.248;2024-03-22T08:56:55;101021.38;;;12.86;74.08
51359;BME280;37448;51.588;7.248;2024-03-22T08:58:55;101011.63;;;12.93;75.76
51359;BME280;37448;51.588;7.248;2024-03-22T09:00:56;101023.06;;;12.89;74.95
51359;BME280;37448;51.588;7.248;2024-03-22T09:02:56;101015.13;;;12.92;73.25
51359;BME280;37448;51.588;7.248;2024-03-22T09:04:57;101020.25;;;12.98;75.03
51359;BME280;37448;51.588;7.248;2024-03-22T09:06:57;101026.19;;;13.08;76.42
51359;BME280;37448;51.588;7.248;2024-03-22T09:08:58;101025.19;;;13.14;74.92
51359;BME280;37448;51.588;7.248;2024-03-22T09:10:59;101023.28;;;13.22;72.05
51359;BME280;37448;51.588;7.248;2024-03-22T09:12:59;101008.09;;;13.37;72.92
51359;BME280;37448;51.588;7.248;2024-03-22T09:14:59;101018.41;;;13.44;72.45
51359;BME280;37448;51.588;7.248;2024-03-22T09:17:00;101018.25;;;13.51;73.90
51359;BME280;37448;51.588;7.248;2024-03-22T09:19:01;101006.88;;;13.52;76.01
51359;BME280;37448;51.588;7.248;2024-03-22T09:21:01;101012.09;;;13.53;77.18
51359;BME280;37448;51.588;7.248;2024-03-22T09:23:02;101007.63;;;13.57;73.74
51359;BME280;37448;51.588;7.248;2024-03-22T09:25:04;101004.97;;;13.58;74.53
51359;BME280;37448;51.588;7.248;2024-03-22T09:27:05;101004.13;;;13.58;73.76
51359;BME280;37448;51.588;7.248;2024-03-22T09:29:08;101005.84;;;13.59;75.46
51359;BME280;37448;51.588;7.248;2024-03-22T09:31:09;101003.06;;;13.65;75.39
51359;BME280;37448;51.588;7.248;2024-03-22T09:33:09;100999.19;;;13.80;77.88
51359;BME280;37448;51.588;7.248;2024-03-22T09:35:11;100998.91;;;13.92;76.20
51359;BME280;37448;51.588;7.248;2024-03-22T09:37:14;100992.69;;;13.97;73.67
51359;BME280;37448;51.588;7.248;2024-03-22T09:39:15;100982.94;;;14.02;74.50
51359;BME280;37448;51.588;7.248;2024-03-22T09:41:18;100989.63;;;14.12;77.15
51359;BME280;37448;51.588;7.248;2024-03-22T09:43:22;100988.72;;;14.13;74.25
51359;BME280;37448;51.588;7.248;2024-03-22T09:45:25;100989.81;;;14.06;74.82
51359;BME280;37448;51.588;7.248;2024-03-22T09:47:26;100981.22;;;13.99;73.72
51359;BME280;37448;51.588;7.248;2024-03-22T09:49:27;100976.06;;;13.98;73.84
51359;BME280;37448;51.588;7.248;2024-03-22T09:51:27;100980.03;;;13.78;71.34
51359;BME280;37448;51.588;7.248;2024-03-22T09:53:29;100977.22;;;13.86;74.73
51359;BME280;37448;51.588;7.248;2024-03-22T09:55:31;100982.56;;;13.81;72.34
51359;BME280;37448;51.588;7.248;2024-03-22T09:57:38;100967.88;;;13.75;72.46
51359;BME280;37448;51.588;7.248;2024-03-22T09:59:38;100970.44;;;13.78;74.45
51359;BME280;37448;51.588;7.248;2024-03-22T10:01:39;100970.34;;;13.82;75.70
51359;BME280;37448;51.588;7.248;2024-03-22T10:03:41;100970.28;;;13.83;75.00
51359;BME280;37448;51.588;7.248;2024-03-22T10:05:41;100964.06;;;13.87;73.59
51359;BME280;37448;51.588;7.248;2024-03-22T10:07:44;100956.88;;;13.96;74.07
51359;BME280;37448;51.588;7.248;2024-03-22T10:09:44;100967.44;;;13.92;73.29
51359;BME280;37448;51.588;7.248;2024-03-22T10:11:44;100958.78;;;13.90;72.76
51359;BME280;37448;51.588;7.248;2024-03-22T10:13:45;100953.38;;;13.97;74.12
51359;BME280;37448;51.588;7.248;2024-03-22T10:15:47;100953.28;;;14.00;73.15
51359;BME280;37448;51.588;7.248;2024-03-22T10:17:49;100940.97;;;14.02;73.09
51359;BME280;37448;51.588;7.248;2024-03-22T10:19:49;100950.38;;;14.11;73.87
51359;BME280;37448;51.588;7.248;2024-03-22T10:22:02;100950.00;;;14.23;74.01
51359;BME280;37448;51.588;7.248;2024-03-22T10:24:02;100950.63;;;14.33;74.05
51359;BME280;37448;51.588;7.248;2024-03-22T10:26:04;100946.00;;;14.43;73.50
51359;BME280;37448;51.588;7.248;2024-03-22T10:28:05;100945.59;;;14.57;75.17
51359;BME280;37448;51.588;7.248;2024-03-22T10:30:08;100949.00;;;14.60;70.79
51359;BME280;37448;51.588;7.248;2024-03-22T10:32:09;100937.28;;;14.72;74.31